Thunder radar more information blitzortung!


Rain radar more information rain snow radar


Visit our other weather sites:

Template documentation
and downloads

And another site



There are no active watches, warnings or advisories

Nearby METAR Reports

   
EHVK - Volkel Rnlafb, Netherlands
Distance from station: SW 11 mi
Updated: Sep 17 2019 3:25 pm
Partly Cloudy  
Partly Cloudy  
   Wind: varies 2.3 mph
Wind: varies 2.3 mph
Temperature: 51.8°F
Dew Point: 41°F
Humidity: 67%
Barometer: 30.24 inHg
Clouds: Partly Cloudy
Visibility: More than 6 mi
Cloud details: Partly Cloudy 37000 ft
EHVK 171925Z AUTO VRB02KT 9999 SCT370 11/05 Q1024 BLU
EDLV - Niederrhein, Germany
Distance from station: SE 15 mi
Updated: Sep 17 2019 3:20 pm
Clear  
Clear  
   Wind: NW 5.8 mph
Wind: NW 5.8 mph
Temperature: 53.6°F
Dew Point: 42.8°F
Humidity: 67%
Barometer: 30.24 inHg
Visibility: More than 6 mi
Cloud details: Clear
EDLV 171920Z 31005KT CAVOK 12/06 Q1024
EHDL - Deelen Rnlafb, Netherlands
Distance from station: N 22 mi
Updated: Sep 17 2019 3:25 pm
Overcast  
Overcast  
   Wind: West 4.6 mph
Wind: West 4.6 mph
Temperature: 50°F
Wind Chill: 48.2°F
Dew Point: 42.8°F
Humidity: 76%
Barometer: 30.24 inHg
Clouds: Overcast
Visibility: More than 6 mi
Cloud details: Few Clouds 4600 ft,
Mostly Cloudy 5100 ft,
Overcast 36000 ft
EHDL 171925Z AUTO 28004KT 280V060 9999 FEW046 BKN051 OVC360 10/06 Q1024 BLU
EHEH - Eindhoven Rnlafb, Netherlands
Distance from station: SW 30 mi
Updated: Sep 17 2019 3:25 pm
Clear  
Clear  
   Wind: NNW 4.6 mph
Wind: NNW 4.6 mph
Temperature: 51.8°F
Dew Point: 41°F
Humidity: 67%
Barometer: 30.24 inHg
Clouds: Clear
Visibility: More than 6 mi
Cloud details: Clear
EHEH 171925Z AUTO 33004KT 230V010 9999 NCD 11/05 Q1024 BLU 33008KT CAVOK
EHGR - Gilze-Rijen Rnla, Netherlands
Distance from station: WSW 43 mi
Updated: Sep 17 2019 3:25 pm
Clear  
Clear  
   Wind: NNW 5.8 mph
Wind: NNW 5.8 mph
Temperature: 53.6°F
Dew Point: 42.8°F
Humidity: 67%
Barometer: 30.27 inHg
Clouds: Clear
Visibility: More than 6 mi
Cloud details: Clear
EHGR 171925Z AUTO 33005KT 290V020 9999 NCD 12/06 Q1025 BLU 31005KT 9999 NSC
EBBL - Kleine-Brogel(Ba, Belgium
Distance from station: SSW 44 mi
Updated: Sep 17 2019 2:55 pm
Few Clouds  
Few Clouds  
   Wind: NNW 4.6 mph
Wind: NNW 4.6 mph
Temperature: 53.6°F
Dew Point: 41°F
Humidity: 63%
Barometer: 30.24 inHg
Clouds: Few Clouds
Visibility: More than 6 mi
Cloud details: Few Clouds 4100 ft
EBBL 171855Z 33004KT 9999 FEW041 12/05 Q1024 BLU BLU

Script developed by  Saratoga-weather.org Adapted for the template by  Weerstation Leuven

You find our weather info also at:

Weather Underground

AWEKAS

Citizen Weather Observer Program (CWOP)

HAMweather, WeatherForYou, PWS Weather

Equipment we use:

Weather-station
Davis VP2

Weather-program
Weather Display

Weather-server
HP ProDesk 600 G1

Provider
1&1 IONOS

Davis VP2

Weather Display

HP ProDesk 600 G1

1&1 IONOS